Jefferson, GA

5:16 PM EDT on May 29, 2015 (GMT -0400)
Morgan's Creek | | Change Station
CLOSE
Current Station
Personal Weather Station
Location: Jefferson, GA
Elevation: 787 ft
Nearby Weather Stations

Elev 787 ft 34.09 °N, 83.62 °W | Updated 2 minutes ago

Clear
Clear
81.6 °F
Feels Like 85 °F
N
0.0
Wind Variable Wind from ESE
Gusts 1.0 mph

Today
High -- | Low -- °F
--% Chance of Precip.
Yesterday
High -- | Low -- °F
Precip. -- in
6:24 AM 8:38 PM
Waxing Gibbous, 86% visible
Pressure 30.17 in
Visibility 10.0 miles
Clouds Scattered Clouds 4400 ft
Heat Index 85 °F
Dew Point 69 °F
Humidity 65%
Rainfall 0.00 in
Snow Depth Not available.
UV 5 out of 12
Pollen 5.50 out of 12
Air Quality Not available.
Flu Activity Sporadic
METAR K19A 292055Z AUTO 11004KT 10SM SCT044 28/18 A3017 RMK AO2

More Conditions Fewer Conditions

Pressure 30.17 in
Visibility 10.0 miles
Clouds Scattered Clouds 4400 ft
Heat Index 85 °F
Dew Point 69 °F
Humidity 65%
Rainfall 0.00 in
Snow Depth Not available.
UV 5 out of 12
Pollen 5.50 out of 12
Air Quality Not available.
Flu Activity Sporadic
METAR K19A 292055Z AUTO 11004KT 10SM SCT044 28/18 A3017 RMK AO2

More Conditions Fewer Conditions

10-Day Weather Forecast

Almanac

Astronomy

May. 29, 2015 Rise Set
Actual Time
Civil Twilight
Nautical Twilight
Astronomical Twilight
Moon
Length of Visible Light
Length of Day
Tomorrow will be .
, % of the Moon is Illuminated

Today's Extremes

State Highs State Lows

Community

WunderPhotos

Upload Photos

1,825,359 photos uploaded!

WunderBlogs® & News

Nearby

Air Quality

  Air Quality AQ Index Pollutant
Not available.

Snow Depth

Station Depth Elevation

Earthquake Activity

City Distance Mag. Time & Date
Minimum magnitude displayed is 2.5.

Coastal Water Temperatures

Place Temperature

Stations

Nearby Weather Stations

Station Location Temp. Windchill Dew Point Humidity Wind Precip. Elev Updated Type